createdAt,value
2017-08-15T00:00:17.186Z,88.49
2017-08-15T00:00:58.071Z,89.17
2017-08-15T00:01:38.973Z,88.69
2017-08-15T00:02:19.860Z,88.69
2017-08-15T00:03:00.749Z,89.26
2017-08-15T00:03:41.634Z,88.79
2017-08-15T00:04:22.544Z,88.88
2017-08-15T00:05:03.441Z,88.88
2017-08-15T00:05:44.321Z,88.98
2017-08-15T00:06:25.214Z,88.79
2017-08-15T00:07:06.098Z,88.88
2017-08-15T00:07:46.980Z,88.88
2017-08-15T00:08:27.894Z,88.98
2017-08-15T00:09:08.787Z,88.88
2017-08-15T00:09:49.679Z,88.98
2017-08-15T00:10:30.564Z,88.88
2017-08-15T00:11:11.449Z,88.98
2017-08-15T00:11:52.337Z,89.17
2017-08-15T00:12:33.237Z,89.26
2017-08-15T00:14:11.691Z,89.17
2017-08-15T00:14:52.576Z,88.98
2017-08-15T00:15:33.460Z,88.88
2017-08-15T00:16:14.347Z,88.98
2017-08-15T00:16:55.240Z,88.98
2017-08-15T00:17:36.125Z,88.88
2017-08-15T00:18:17.015Z,89.07
2017-08-15T00:18:57.918Z,88.79
2017-08-15T00:19:38.792Z,88.88
2017-08-15T00:20:19.678Z,88.88
2017-08-15T00:21:00.561Z,88.98
2017-08-15T00:21:41.440Z,88.98
2017-08-15T00:22:22.331Z,88.98
2017-08-15T00:23:03.221Z,88.98
2017-08-15T00:23:44.096Z,89.75
2017-08-15T00:24:24.988Z,88.98
2017-08-15T00:25:05.882Z,88.69
2017-08-15T00:25:46.770Z,89.07
2017-08-15T00:26:27.754Z,88.79
2017-08-15T00:27:08.652Z,88.93
2017-08-15T00:27:49.549Z,89.03
2017-08-15T00:28:30.435Z,88.59
2017-08-15T00:29:11.316Z,88.69
2017-08-15T00:29:52.201Z,89.65
2017-08-15T00:30:33.092Z,88.79
2017-08-15T00:31:14.017Z,88.59
2017-08-15T00:31:54.908Z,89.17
2017-08-15T00:32:35.795Z,88.65
2017-08-15T00:33:16.686Z,89.36
2017-08-15T00:33:57.576Z,89.36
2017-08-15T00:34:38.458Z,88.98
2017-08-15T00:35:19.347Z,89.32
2017-08-15T00:36:00.235Z,88.84
2017-08-15T00:36:41.118Z,89.36
2017-08-15T00:37:22.020Z,89.17
2017-08-15T00:38:02.913Z,88.69
2017-08-15T00:38:43.806Z,89.12
2017-08-15T00:39:24.698Z,89.41
2017-08-15T00:40:05.587Z,89.12
2017-08-15T00:40:46.472Z,89.22
2017-08-15T00:41:27.355Z,89.32
2017-08-15T00:42:08.242Z,89.41
2017-08-15T00:42:49.131Z,89.12
2017-08-15T00:43:30.024Z,89.32
2017-08-15T00:44:10.906Z,89.22
2017-08-15T00:44:51.792Z,89.12
2017-08-15T00:45:32.677Z,89.32
2017-08-15T00:46:13.580Z,89.12
2017-08-15T00:46:54.485Z,89.12
2017-08-15T00:47:35.372Z,89.12
2017-08-15T00:48:16.262Z,89.22
2017-08-15T00:48:57.156Z,89.12
2017-08-15T00:49:38.032Z,89.22
2017-08-15T00:50:18.922Z,89.03
2017-08-15T00:50:59.803Z,89.22
2017-08-15T00:51:40.691Z,89.12
2017-08-15T00:52:21.571Z,89.22
2017-08-15T00:53:02.459Z,89.12
2017-08-15T00:53:43.363Z,89.12
2017-08-15T00:54:24.241Z,89.12
2017-08-15T00:55:05.125Z,89.03
2017-08-15T00:55:46.024Z,89.22
2017-08-15T00:56:26.901Z,89.22
2017-08-15T00:57:07.790Z,88.55
2017-08-15T00:57:48.687Z,89.22
2017-08-15T00:58:29.577Z,89.32
2017-08-15T00:59:10.464Z,89.22
2017-08-15T00:59:51.367Z,88.84
2017-08-15T01:00:32.261Z,89.32
2017-08-15T01:01:13.148Z,89.03
2017-08-15T01:01:54.040Z,89.89
2017-08-15T01:02:34.933Z,89.32
2017-08-15T01:03:15.812Z,89.41
2017-08-15T01:03:56.707Z,89.7
2017-08-15T01:04:37.605Z,89.7
2017-08-15T01:05:18.516Z,89.41
2017-08-15T01:05:59.404Z,89.22
2017-08-15T01:06:40.285Z,89.61
2017-08-15T01:07:21.189Z,89.03
2017-08-15T01:08:02.070Z,89.22
2017-08-15T01:08:42.955Z,89.12
2017-08-15T01:09:23.841Z,89.61
2017-08-15T01:10:04.736Z,89.61
2017-08-15T01:10:45.624Z,89.7
2017-08-15T01:11:26.501Z,89.89
2017-08-15T01:12:07.421Z,89.51
2017-08-15T01:12:48.281Z,89.12
2017-08-15T01:13:29.168Z,89.61
2017-08-15T01:14:10.051Z,89.61
2017-08-15T01:14:50.943Z,89.22
2017-08-15T01:15:31.823Z,89.89
2017-08-15T01:16:12.700Z,89.41
2017-08-15T01:16:53.583Z,89.41
2017-08-15T01:17:34.474Z,89.61
2017-08-15T01:18:15.354Z,89.7
2017-08-15T01:18:56.232Z,89.51
2017-08-15T01:19:37.142Z,89.51
2017-08-15T01:20:18.025Z,89.7
2017-08-15T01:20:58.914Z,89.41
2017-08-15T01:21:39.791Z,89.51
2017-08-15T01:22:20.690Z,89.22
2017-08-15T01:23:01.584Z,89.51
2017-08-15T01:23:42.458Z,89.22
2017-08-15T01:24:23.352Z,89.61
2017-08-15T01:25:04.235Z,89.22
2017-08-15T01:25:45.130Z,89.32
2017-08-15T01:26:26.025Z,89.7
2017-08-15T01:27:06.909Z,89.7
2017-08-15T01:27:47.792Z,89.22
2017-08-15T01:28:28.661Z,89.61
2017-08-15T01:29:09.554Z,89.51
2017-08-15T01:29:50.444Z,89.61
2017-08-15T01:30:31.334Z,89.41
2017-08-15T01:31:12.228Z,89.61
2017-08-15T01:31:53.117Z,89.22
2017-08-15T01:32:34.005Z,89.79
2017-08-15T01:33:14.883Z,89.61
2017-08-15T01:33:55.764Z,89.56
2017-08-15T01:34:36.653Z,89.7
2017-08-15T01:35:17.545Z,89.61
2017-08-15T01:35:58.426Z,89.56
2017-08-15T01:36:39.329Z,89.32
2017-08-15T01:37:20.208Z,89.61
2017-08-15T01:38:01.088Z,89.41
2017-08-15T01:38:41.969Z,89.47
2017-08-15T01:39:22.859Z,89.7
2017-08-15T01:40:03.754Z,89.61
2017-08-15T01:40:44.650Z,89.61
2017-08-15T01:41:25.550Z,89.61
2017-08-15T01:42:06.435Z,89.41
2017-08-15T01:42:47.326Z,89.61
2017-08-15T01:43:28.218Z,89.51
2017-08-15T01:44:09.094Z,89.32
2017-08-15T01:44:49.972Z,89.7
2017-08-15T01:45:30.874Z,89.79
2017-08-15T01:46:11.750Z,89.7
2017-08-15T01:46:52.635Z,89.7
2017-08-15T01:47:33.532Z,89.75
2017-08-15T01:48:14.422Z,89.61
2017-08-15T01:48:55.306Z,89.22
2017-08-15T01:49:36.198Z,89.65
2017-08-15T01:50:17.097Z,89.37
2017-08-15T01:50:57.971Z,89.61
2017-08-15T01:51:38.856Z,89.89
2017-08-15T01:52:19.746Z,89.7
2017-08-15T01:53:00.630Z,89.75
2017-08-15T01:53:41.511Z,89.79
2017-08-15T01:54:22.391Z,89.79
2017-08-15T01:55:03.278Z,89.61
2017-08-15T01:55:44.167Z,89.79
2017-08-15T01:56:25.057Z,89.37
2017-08-15T01:57:05.992Z,89.7
2017-08-15T01:57:46.874Z,89.79
2017-08-15T01:58:27.782Z,89.7
2017-08-15T01:59:08.666Z,89.41
2017-08-15T01:59:49.565Z,89.79
2017-08-15T02:00:30.442Z,89.41
2017-08-15T02:01:11.358Z,89.56
2017-08-15T02:01:52.225Z,89.7
2017-08-15T02:02:33.126Z,89.51
2017-08-15T02:03:14.033Z,89.79
2017-08-15T02:03:54.893Z,89.37
2017-08-15T02:04:35.776Z,89.51
2017-08-15T02:05:16.675Z,89.41
2017-08-15T02:05:57.552Z,89.99
2017-08-15T02:06:38.432Z,89.7
2017-08-15T02:07:19.328Z,89.65
2017-08-15T02:08:00.232Z,89.7
2017-08-15T02:08:41.105Z,89.7
2017-08-15T02:09:21.984Z,89.7
2017-08-15T02:10:02.881Z,89.47
2017-08-15T02:10:43.768Z,89.99
2017-08-15T02:11:24.648Z,89.65
2017-08-15T02:12:05.536Z,89.56
2017-08-15T02:12:46.429Z,89.7
2017-08-15T02:13:27.323Z,89.7
2017-08-15T02:14:08.206Z,89.94
2017-08-15T02:14:49.093Z,90.18
2017-08-15T02:15:29.976Z,89.41
2017-08-15T02:16:10.849Z,89.47
2017-08-15T02:16:51.721Z,89.37
2017-08-15T02:17:32.621Z,89.94
2017-08-15T02:18:13.506Z,89.65
2017-08-15T02:18:54.383Z,90.04
2017-08-15T02:19:35.274Z,90.14
2017-08-15T02:20:16.170Z,90.14
2017-08-15T02:20:57.060Z,89.94
2017-08-15T02:21:37.943Z,89.94
2017-08-15T02:22:18.817Z,89.94
2017-08-15T02:22:59.707Z,89.75
2017-08-15T02:23:40.599Z,89.56
2017-08-15T02:24:21.492Z,89.56
2017-08-15T02:25:02.393Z,89.75
2017-08-15T02:25:43.275Z,89.94
2017-08-15T02:26:24.167Z,89.94
2017-08-15T02:27:05.054Z,90.23
2017-08-15T02:27:45.939Z,89.94
2017-08-15T02:28:26.855Z,90.33
2017-08-15T02:29:07.752Z,89.65
2017-08-15T02:29:48.633Z,89.65
2017-08-15T02:30:29.513Z,89.94
2017-08-15T02:31:10.417Z,89.75
2017-08-15T02:31:51.291Z,90.04
2017-08-15T02:32:32.171Z,89.75
2017-08-15T02:33:13.086Z,89.94
2017-08-15T02:33:53.960Z,90.04
2017-08-15T02:34:34.845Z,89.85
2017-08-15T02:35:15.728Z,90.14
2017-08-15T02:35:56.618Z,89.85
2017-08-15T02:36:37.494Z,90.14
2017-08-15T02:37:18.367Z,89.94
2017-08-15T02:37:59.248Z,89.75
2017-08-15T02:38:40.138Z,90.04
2017-08-15T02:39:21.031Z,89.94
2017-08-15T02:40:01.948Z,89.75
2017-08-15T02:40:42.832Z,90.23
2017-08-15T02:41:23.708Z,90.14
2017-08-15T02:42:04.597Z,89.75
2017-08-15T02:42:45.500Z,90.14
2017-08-15T02:43:26.379Z,90.23
2017-08-15T02:44:07.264Z,89.56
2017-08-15T02:44:48.169Z,89.75
2017-08-15T02:45:29.085Z,90.33
2017-08-15T02:46:09.971Z,90.04
2017-08-15T02:46:50.868Z,89.75
2017-08-15T02:47:31.746Z,90.04
2017-08-15T02:48:12.627Z,89.94
2017-08-15T02:48:53.527Z,89.94
2017-08-15T02:49:34.406Z,90.04
2017-08-15T02:50:15.284Z,90.04
2017-08-15T02:50:56.220Z,89.94
2017-08-15T02:51:37.094Z,89.75
2017-08-15T02:52:17.987Z,90.14
2017-08-15T02:52:58.878Z,89.75
2017-08-15T02:53:39.764Z,90.14
2017-08-15T02:54:20.634Z,89.85
2017-08-15T02:55:01.533Z,89.75
2017-08-15T02:55:42.437Z,90.14
2017-08-15T02:56:23.318Z,90.23
2017-08-15T02:57:04.248Z,90.04
2017-08-15T02:57:45.134Z,89.75
2017-08-15T02:58:26.001Z,90.33
2017-08-15T02:59:06.892Z,89.94
2017-08-15T02:59:47.785Z,89.94
2017-08-15T03:00:28.677Z,89.47
2017-08-15T03:01:09.576Z,89.85
2017-08-15T03:01:50.479Z,89.8
2017-08-15T03:02:31.345Z,89.71
2017-08-15T03:03:12.236Z,89.71
2017-08-15T03:03:53.135Z,89.85
2017-08-15T03:04:34.015Z,90.14
2017-08-15T03:05:14.909Z,89.85
2017-08-15T03:05:55.802Z,90.14
2017-08-15T03:06:36.686Z,89.75
2017-08-15T03:07:17.566Z,89.75
2017-08-15T03:07:58.458Z,89.85
2017-08-15T03:08:39.348Z,89.71
2017-08-15T03:09:20.238Z,90.04
2017-08-15T03:10:01.136Z,89.75
2017-08-15T03:10:42.025Z,89.75
2017-08-15T03:11:22.926Z,89.94
2017-08-15T03:12:03.799Z,90.23
2017-08-15T03:12:44.682Z,89.9
2017-08-15T03:13:25.569Z,89.56
2017-08-15T03:14:06.464Z,89.65
2017-08-15T03:14:47.359Z,89.75
2017-08-15T03:15:28.249Z,89.75
2017-08-15T03:16:09.129Z,90.33
2017-08-15T03:16:50.010Z,89.71
2017-08-15T03:17:30.900Z,89.75
2017-08-15T03:18:11.799Z,90.04
2017-08-15T03:18:52.673Z,90.04
2017-08-15T03:19:33.580Z,89.75
2017-08-15T03:20:14.459Z,89.56
2017-08-15T03:20:55.346Z,89.56
2017-08-15T03:21:36.245Z,89.75
2017-08-15T03:22:17.127Z,89.75
2017-08-15T03:22:58.012Z,90.04
2017-08-15T03:23:38.902Z,89.85
2017-08-15T03:24:19.800Z,89.65
2017-08-15T03:25:00.683Z,89.75
2017-08-15T03:25:41.545Z,89.56
2017-08-15T03:26:22.431Z,90
2017-08-15T03:27:03.324Z,90.14
2017-08-15T03:27:44.217Z,89.61
2017-08-15T03:28:25.112Z,89.51
2017-08-15T03:29:05.996Z,89.71
2017-08-15T03:29:46.903Z,90.09
2017-08-15T03:30:27.784Z,89.51
2017-08-15T03:31:08.669Z,89.61
2017-08-15T03:31:49.559Z,89.9
2017-08-15T03:32:30.442Z,89.9
2017-08-15T03:33:11.352Z,89.9
2017-08-15T03:33:52.235Z,90.09
2017-08-15T03:34:33.144Z,90.09
2017-08-15T03:35:14.037Z,90.09
2017-08-15T03:35:54.941Z,90.19
2017-08-15T03:36:35.836Z,90.28
2017-08-15T03:37:16.719Z,90.19
2017-08-15T03:37:57.602Z,89.71
2017-08-15T03:38:38.492Z,90.09
2017-08-15T03:39:19.377Z,89.71
2017-08-15T03:40:00.264Z,89.9
2017-08-15T03:40:41.161Z,90.09
2017-08-15T03:41:22.055Z,90
2017-08-15T03:42:02.932Z,90.09
2017-08-15T03:42:43.818Z,89.9
2017-08-15T03:43:24.715Z,90
2017-08-15T03:44:05.597Z,89.71
2017-08-15T03:44:46.475Z,90.19
2017-08-15T03:45:27.359Z,89.9
2017-08-15T03:46:08.259Z,89.8
2017-08-15T03:46:49.147Z,89.9
2017-08-15T03:47:30.055Z,90.09
2017-08-15T03:48:10.945Z,89.9
2017-08-15T03:48:51.835Z,90
2017-08-15T03:49:32.732Z,89.9
2017-08-15T03:50:13.623Z,89.9
2017-08-15T03:50:54.514Z,90.19
2017-08-15T03:51:35.446Z,89.9
2017-08-15T03:52:16.341Z,89.9
2017-08-15T03:52:57.222Z,90.38
2017-08-15T03:53:38.108Z,90.28
2017-08-15T03:54:18.996Z,90.28
2017-08-15T03:54:59.881Z,90
2017-08-15T03:55:40.781Z,89.9
2017-08-15T03:56:21.669Z,90.28
2017-08-15T03:57:02.548Z,90
2017-08-15T03:57:43.445Z,90.38
2017-08-15T03:58:24.329Z,90.28
2017-08-15T03:59:05.218Z,90.23
2017-08-15T03:59:46.120Z,90.53
2017-08-15T04:00:26.998Z,90.38
2017-08-15T04:01:07.864Z,90.33
2017-08-15T04:01:48.741Z,90.23
2017-08-15T04:02:29.616Z,90.33
2017-08-15T04:03:10.513Z,90.23
2017-08-15T04:03:51.395Z,90.23
2017-08-15T04:04:32.285Z,89.95
2017-08-15T04:05:13.168Z,89.66
2017-08-15T04:05:54.053Z,90.23
2017-08-15T04:06:34.938Z,90.23
2017-08-15T04:07:15.818Z,90.23
2017-08-15T04:07:56.701Z,90
2017-08-15T04:08:37.597Z,90.43
2017-08-15T04:09:18.491Z,90.23
2017-08-15T04:09:59.381Z,90.23
2017-08-15T04:10:40.285Z,90.14
2017-08-15T04:11:21.169Z,90.05
2017-08-15T04:12:02.053Z,90.14
2017-08-15T04:12:42.937Z,90.14
2017-08-15T04:13:23.818Z,90.14
2017-08-15T04:14:04.727Z,89.95
2017-08-15T04:14:45.625Z,90.33
2017-08-15T04:15:26.496Z,90.14
2017-08-15T04:16:07.381Z,90.23
2017-08-15T04:16:48.261Z,90.23
2017-08-15T04:17:29.146Z,90.23
2017-08-15T04:18:10.020Z,90.14
2017-08-15T04:18:50.925Z,90.23
2017-08-15T04:19:31.830Z,90.33
2017-08-15T04:20:12.705Z,90.33
2017-08-15T04:20:53.594Z,90.33
2017-08-15T04:21:34.475Z,90.14
2017-08-15T04:22:15.352Z,90.14
2017-08-15T04:22:56.235Z,90.23
2017-08-15T04:23:37.120Z,90.23
2017-08-15T04:24:18.009Z,90.23
2017-08-15T04:24:58.890Z,90.14
2017-08-15T04:25:39.776Z,90.23
2017-08-15T04:26:20.679Z,90.14
2017-08-15T04:27:01.562Z,90.23
2017-08-15T04:27:42.450Z,90.14
2017-08-15T04:28:23.335Z,90.33
2017-08-15T04:29:04.218Z,89.9
2017-08-15T04:29:45.103Z,90.33
2017-08-15T04:30:25.994Z,90.14
2017-08-15T04:31:06.880Z,90.14
2017-08-15T04:31:47.768Z,90.33
2017-08-15T04:32:28.656Z,90.28
2017-08-15T04:33:09.545Z,89.86
2017-08-15T04:33:50.427Z,90.43
2017-08-15T04:34:31.318Z,90.28
2017-08-15T04:35:12.200Z,90.14
2017-08-15T04:35:53.089Z,89.86
2017-08-15T04:36:33.980Z,90.38
2017-08-15T04:37:14.863Z,90.33
2017-08-15T04:37:55.755Z,90.38
2017-08-15T04:38:36.631Z,90.14
2017-08-15T04:39:17.523Z,90.19
2017-08-15T04:39:58.409Z,90.38
2017-08-15T04:40:39.313Z,90.14
2017-08-15T04:41:20.201Z,90.33
2017-08-15T04:42:01.110Z,90.33
2017-08-15T04:42:41.999Z,90.14
2017-08-15T04:43:22.883Z,90.33
2017-08-15T04:44:03.775Z,90.23
2017-08-15T04:44:44.670Z,90.33
2017-08-15T04:45:25.555Z,90.14
2017-08-15T04:46:06.438Z,90.23
2017-08-15T04:46:47.330Z,90.33
2017-08-15T04:47:28.231Z,90.14
2017-08-15T04:48:09.123Z,90.14
2017-08-15T04:48:50.042Z,90.14
2017-08-15T04:49:30.909Z,90.23
2017-08-15T04:50:11.831Z,90.33
2017-08-15T04:50:52.759Z,90.33
2017-08-15T04:51:33.589Z,90.14
2017-08-15T04:52:14.510Z,90.14
2017-08-15T04:52:55.410Z,90.33
2017-08-15T04:53:36.292Z,90
2017-08-15T04:54:17.187Z,90.09
2017-08-15T04:54:58.077Z,90.38
2017-08-15T04:55:38.968Z,90.09
2017-08-15T04:56:19.851Z,90.19
2017-08-15T04:57:00.746Z,90.38
2017-08-15T04:57:41.615Z,90.19
2017-08-15T04:58:22.526Z,90.38
2017-08-15T04:59:03.436Z,90.19
2017-08-15T04:59:44.291Z,90.38
2017-08-15T05:00:25.178Z,90.09
2017-08-15T05:01:06.112Z,90.19
2017-08-15T05:01:47.018Z,90.38
2017-08-15T05:02:27.888Z,90.19
2017-08-15T05:03:08.766Z,90.19
2017-08-15T05:03:49.652Z,90
2017-08-15T05:04:30.562Z,89.9
2017-08-15T05:06:09.064Z,90.47
2017-08-15T05:06:49.944Z,90
2017-08-15T05:07:30.831Z,90.57
2017-08-15T05:08:11.715Z,90.47
2017-08-15T05:08:52.604Z,90.47
2017-08-15T05:09:33.492Z,90.28
2017-08-15T05:10:14.364Z,90.47
2017-08-15T05:10:55.250Z,90.38
2017-08-15T05:11:36.139Z,90.28
2017-08-15T05:12:17.025Z,90.38
2017-08-15T05:12:57.897Z,90.47
2017-08-15T05:13:38.785Z,90.57
2017-08-15T05:14:19.669Z,90.19
2017-08-15T05:15:00.547Z,90.38
2017-08-15T05:15:41.450Z,90.47
2017-08-15T05:16:22.350Z,90
2017-08-15T05:17:03.228Z,90.57
2017-08-15T05:17:44.103Z,90.47
2017-08-15T05:18:25.000Z,90.47
2017-08-15T05:19:05.901Z,90.09
2017-08-15T05:19:46.783Z,90
2017-08-15T05:20:27.668Z,90.09
2017-08-15T05:21:08.556Z,90
2017-08-15T05:21:49.451Z,90.28
2017-08-15T05:22:30.345Z,90.09
2017-08-15T05:23:11.233Z,90.19
2017-08-15T05:23:52.121Z,90.09
2017-08-15T05:24:33.001Z,90.19
2017-08-15T05:25:13.891Z,90.57
2017-08-15T05:25:54.815Z,89.9
2017-08-15T05:26:35.677Z,90.57
2017-08-15T05:27:16.577Z,90.38
2017-08-15T05:27:57.460Z,89.9
2017-08-15T05:28:38.337Z,90.09
2017-08-15T05:29:19.230Z,90.19
2017-08-15T05:30:00.117Z,89.9
2017-08-15T05:30:40.996Z,90.09
2017-08-15T05:31:21.885Z,89.9
2017-08-15T05:32:02.769Z,89.8
2017-08-15T05:32:43.656Z,90.14
2017-08-15T05:33:24.532Z,89.94
2017-08-15T05:34:05.416Z,89.94
2017-08-15T05:34:46.305Z,90.14
2017-08-15T05:35:27.214Z,89.94
2017-08-15T05:36:08.147Z,90.33
2017-08-15T05:36:49.025Z,90.23
2017-08-15T05:37:29.907Z,89.75
2017-08-15T05:38:10.791Z,89.85
2017-08-15T05:38:51.682Z,89.94
2017-08-15T05:39:32.567Z,89.75
2017-08-15T05:40:13.449Z,89.85
2017-08-15T05:40:54.327Z,89.85
2017-08-15T05:41:35.218Z,89.75
2017-08-15T05:42:16.112Z,89.85
2017-08-15T05:42:57.000Z,89.94
2017-08-15T05:43:37.888Z,89.94
2017-08-15T05:44:18.787Z,90.04
2017-08-15T05:44:59.652Z,90.33
2017-08-15T05:45:40.540Z,89.75
2017-08-15T05:46:21.439Z,89.75
2017-08-15T05:47:02.320Z,90.04
2017-08-15T05:47:43.207Z,90.18
2017-08-15T05:48:24.118Z,90.23
2017-08-15T05:49:04.977Z,89.85
2017-08-15T05:49:45.863Z,89.7
2017-08-15T05:50:26.744Z,90.28
2017-08-15T05:51:07.649Z,89.85
2017-08-15T05:51:48.515Z,89.99
2017-08-15T05:52:29.417Z,89.99
2017-08-15T05:53:10.326Z,89.99
2017-08-15T05:53:51.194Z,90.18
2017-08-15T05:54:32.092Z,90.18
2017-08-15T05:55:13.001Z,89.41
2017-08-15T05:55:53.869Z,89.79
2017-08-15T05:56:34.735Z,89.79
2017-08-15T05:57:15.600Z,89.79
2017-08-15T05:57:56.550Z,89.32
2017-08-15T05:58:37.412Z,89.51
2017-08-15T05:59:18.300Z,89.79
2017-08-15T05:59:59.195Z,89.7
2017-08-15T06:00:40.091Z,89.61
2017-08-15T06:01:20.959Z,89.79
2017-08-15T06:02:01.836Z,89.51
2017-08-15T06:02:42.741Z,89.55
2017-08-15T06:03:23.614Z,89.89
2017-08-15T06:04:04.522Z,89.75
2017-08-15T06:04:45.417Z,89.46
2017-08-15T06:05:26.288Z,89.26
2017-08-15T06:06:07.180Z,89.36
2017-08-15T06:06:48.078Z,89.26
2017-08-15T06:07:28.975Z,89.36
2017-08-15T06:08:09.865Z,89.46
2017-08-15T06:08:50.766Z,89.17
2017-08-15T06:09:31.644Z,88.69
2017-08-15T06:10:12.532Z,88.59
2017-08-15T06:10:53.428Z,88.98
2017-08-15T06:11:34.320Z,88.79
2017-08-15T06:12:15.207Z,89.02
2017-08-15T06:12:56.104Z,88.93
2017-08-15T06:13:36.991Z,89.22
2017-08-15T06:14:17.866Z,89.02
2017-08-15T06:14:58.762Z,88.64
2017-08-15T06:15:39.655Z,89.4
2017-08-15T06:16:20.529Z,89.31
2017-08-15T06:17:01.424Z,88.64
2017-08-15T06:17:42.314Z,89.22
2017-08-15T06:18:23.199Z,88.64
2017-08-15T06:19:04.066Z,88.73
2017-08-15T06:19:44.928Z,88.64
2017-08-15T06:20:25.807Z,88.45
2017-08-15T06:21:06.700Z,88.64
2017-08-15T06:21:47.603Z,88.83
2017-08-15T06:22:28.486Z,88.97
2017-08-15T06:23:09.377Z,88.45
2017-08-15T06:23:50.264Z,88.68
2017-08-15T06:24:31.134Z,88.68
2017-08-15T06:25:12.015Z,88.01
2017-08-15T06:25:52.907Z,88.78
2017-08-15T06:26:33.807Z,88.97
2017-08-15T06:27:14.658Z,88.87
2017-08-15T06:27:55.530Z,88.1
2017-08-15T06:28:36.416Z,88.3
2017-08-15T06:29:17.330Z,88.01
2017-08-15T06:29:58.204Z,88.49
2017-08-15T06:30:39.067Z,88.49
2017-08-15T06:31:19.961Z,88.2
2017-08-15T06:32:00.835Z,87.76
2017-08-15T06:32:41.725Z,88.01
2017-08-15T06:33:22.590Z,88.15
2017-08-15T06:34:03.458Z,88.24
2017-08-15T06:34:44.342Z,87.67
2017-08-15T06:35:25.247Z,87.67
2017-08-15T06:36:06.155Z,87.67
2017-08-15T06:36:47.046Z,87.29
2017-08-15T06:37:27.936Z,87.67
2017-08-15T06:38:08.808Z,87.38
2017-08-15T06:38:49.695Z,87.38
2017-08-15T06:39:30.606Z,87.29
2017-08-15T06:40:11.480Z,87.48
2017-08-15T06:40:52.360Z,87.48
2017-08-15T06:41:33.254Z,87.09
2017-08-15T06:42:14.144Z,86.99
2017-08-15T06:42:55.010Z,86.99
2017-08-15T06:43:35.879Z,87.52
2017-08-15T06:44:16.776Z,86.85
2017-08-15T06:44:57.671Z,86.75
2017-08-15T06:45:38.571Z,87.04
2017-08-15T06:46:19.468Z,86.85
2017-08-15T06:47:00.350Z,86.65
2017-08-15T06:47:41.226Z,86.56
2017-08-15T06:48:22.116Z,85.98
2017-08-15T06:49:02.995Z,86.12
2017-08-15T06:49:43.899Z,86.31
2017-08-15T06:50:24.785Z,85.74
2017-08-15T06:51:05.693Z,85.25
2017-08-15T06:51:46.580Z,85.54
2017-08-15T06:52:27.463Z,85.54
2017-08-15T06:53:08.350Z,85.06
2017-08-15T06:53:49.254Z,85.35
2017-08-15T06:54:30.144Z,85.2
2017-08-15T06:55:11.187Z,84.77
2017-08-15T06:55:52.039Z,84.62
2017-08-15T06:56:32.938Z,84.43
2017-08-15T06:57:13.824Z,84.09
2017-08-15T06:57:54.708Z,83.51
2017-08-15T06:58:35.592Z,83.41
2017-08-15T06:59:16.482Z,83.41
2017-08-15T06:59:57.365Z,82.93
2017-08-15T07:00:38.244Z,83.31
2017-08-15T07:01:19.210Z,83.31
2017-08-15T07:02:00.044Z,83.12
2017-08-15T07:02:40.923Z,82.83
2017-08-15T07:03:21.803Z,82.59
2017-08-15T07:04:02.707Z,82.78
2017-08-15T07:04:43.602Z,82.68
2017-08-15T07:05:24.471Z,82.2
2017-08-15T07:06:05.417Z,82.29
2017-08-15T07:06:46.291Z,81.95
2017-08-15T07:07:27.189Z,81.02
2017-08-15T07:08:08.072Z,80.39
2017-08-15T07:08:48.974Z,78.89
2017-08-15T07:09:29.865Z,77.92
2017-08-15T07:10:10.742Z,76.7
2017-08-15T07:10:51.629Z,76.03
2017-08-15T07:11:32.530Z,75.2
2017-08-15T07:12:13.420Z,74.71
2017-08-15T07:12:54.323Z,73.97
2017-08-15T07:13:35.237Z,73.1
2017-08-15T07:14:16.114Z,72.24
2017-08-15T07:14:57.006Z,71.84
2017-08-15T07:15:37.909Z,71.69
2017-08-15T07:16:18.810Z,71.17
2017-08-15T07:16:59.711Z,71.46
2017-08-15T07:17:40.598Z,71.46
2017-08-15T07:18:21.496Z,71.46
2017-08-15T07:19:02.399Z,71.17
2017-08-15T07:19:43.292Z,71.08
2017-08-15T07:20:24.195Z,72.1
2017-08-15T07:21:05.083Z,71.84
2017-08-15T07:21:45.978Z,71.56
2017-08-15T07:22:26.879Z,71.66
2017-08-15T07:23:07.777Z,71.26
2017-08-15T07:23:48.674Z,71.01
2017-08-15T07:24:29.574Z,69.95
2017-08-15T07:25:10.464Z,69.01
2017-08-15T07:25:51.364Z,68.53
2017-08-15T07:26:32.274Z,68.82
2017-08-15T07:27:13.169Z,67.98
2017-08-15T07:27:54.057Z,66.66
2017-08-15T07:28:34.955Z,66.85
2017-08-15T07:29:15.842Z,66.6
2017-08-15T07:29:56.748Z,64.88
2017-08-15T07:30:37.611Z,63.62
2017-08-15T07:31:18.500Z,63.88
2017-08-15T07:31:59.405Z,63.69
2017-08-15T07:32:40.315Z,63.98
2017-08-15T07:33:21.198Z,64.34
2017-08-15T07:34:02.135Z,64.04
2017-08-15T07:34:43.071Z,65.05
2017-08-15T07:35:23.961Z,64.27
2017-08-15T07:36:04.870Z,64.07
2017-08-15T07:36:45.756Z,63.59
2017-08-15T07:37:26.683Z,62.85
2017-08-15T07:38:07.571Z,62.46
2017-08-15T07:38:48.490Z,61.22
2017-08-15T07:39:29.379Z,61.42
2017-08-15T07:40:10.293Z,60.25
2017-08-15T07:40:51.187Z,60.64
2017-08-15T07:41:32.099Z,60.42
2017-08-15T07:42:13.019Z,60.25
2017-08-15T07:42:53.913Z,59.97
2017-08-15T07:43:34.813Z,61.29
2017-08-15T07:44:15.714Z,61.49
2017-08-15T07:44:56.623Z,61.75
2017-08-15T07:45:37.513Z,62.43
2017-08-15T07:46:18.428Z,62.33
2017-08-15T07:46:59.318Z,63.1
2017-08-15T07:47:40.228Z,62.72
2017-08-15T07:48:21.126Z,63.01
2017-08-15T07:49:02.032Z,62.52
2017-08-15T07:49:42.931Z,61.94
2017-08-15T07:50:23.828Z,62.33
2017-08-15T07:51:04.726Z,61.58
2017-08-15T07:51:45.627Z,61.39
2017-08-15T07:52:26.534Z,61.94
2017-08-15T07:53:07.433Z,61.75
2017-08-15T07:53:48.341Z,61.65
2017-08-15T07:54:29.235Z,62.72
2017-08-15T07:55:10.132Z,62.79
2017-08-15T07:55:51.025Z,63.37
2017-08-15T07:56:31.930Z,63.46
2017-08-15T07:57:12.834Z,63.1
2017-08-15T07:57:53.745Z,63.1
2017-08-15T07:58:34.641Z,63.98
2017-08-15T07:59:15.547Z,63.1
2017-08-15T07:59:56.447Z,62.26
2017-08-15T08:00:37.348Z,61.78
2017-08-15T08:01:18.253Z,61.49
2017-08-15T08:01:59.152Z,61.19
2017-08-15T08:02:40.061Z,60.74
2017-08-15T08:03:20.964Z,60.64
2017-08-15T08:04:01.868Z,60.42
2017-08-15T08:04:42.791Z,60.91
2017-08-15T08:05:23.692Z,61.1
2017-08-15T08:06:04.589Z,61.65
2017-08-15T08:06:45.497Z,62.79
2017-08-15T08:07:26.387Z,63.07
2017-08-15T08:08:07.278Z,62.82
2017-08-15T08:08:48.191Z,61.65
2017-08-15T08:09:29.074Z,62.13
2017-08-15T08:10:09.996Z,62.23
2017-08-15T08:10:50.875Z,62.33
2017-08-15T08:11:31.783Z,62.23
2017-08-15T08:12:12.688Z,61.75
2017-08-15T08:12:53.586Z,62.16
2017-08-15T08:13:34.509Z,61.68
2017-08-15T08:14:15.373Z,61.04
2017-08-15T08:14:56.326Z,61.04
2017-08-15T08:15:37.224Z,60.45
2017-08-15T08:16:18.142Z,60.19
2017-08-15T08:16:59.023Z,59.25
2017-08-15T08:17:39.961Z,59.15
2017-08-15T08:18:20.832Z,58.18
2017-08-15T08:19:01.731Z,58.57
2017-08-15T08:19:42.678Z,57.72
2017-08-15T08:20:23.587Z,57.4
2017-08-15T08:21:04.522Z,57.23
2017-08-15T08:21:45.430Z,56.95
2017-08-15T08:22:26.359Z,57.07
2017-08-15T08:23:07.256Z,57.04
2017-08-15T08:23:48.158Z,56.59
2017-08-15T08:24:29.093Z,55.74
2017-08-15T08:25:09.996Z,54.47
2017-08-15T08:25:50.897Z,54.21
2017-08-15T08:26:31.808Z,53.85
2017-08-15T08:27:12.719Z,52.6
2017-08-15T08:27:53.631Z,51.56
2017-08-15T08:28:34.519Z,51.17
2017-08-15T08:29:15.426Z,51.26
2017-08-15T08:29:56.317Z,50.58
2017-08-15T08:30:37.240Z,50.87
2017-08-15T08:31:18.153Z,50.97
2017-08-15T08:31:59.045Z,51.17
2017-08-15T08:32:39.950Z,52.12
2017-08-15T08:33:20.854Z,52.09
2017-08-15T08:34:01.767Z,52.28
2017-08-15T08:34:42.672Z,51.73
2017-08-15T08:35:23.592Z,51.46
2017-08-15T08:36:04.501Z,50.6
2017-08-15T08:36:45.416Z,49.17
2017-08-15T08:37:26.323Z,49.27
2017-08-15T08:38:07.229Z,48.68
2017-08-15T08:38:48.142Z,48.32
2017-08-15T08:39:29.047Z,47.56
2017-08-15T08:40:09.950Z,47.75
2017-08-15T08:42:03.657Z,47.9
2017-08-15T08:42:44.556Z,48.83
2017-08-15T08:43:25.461Z,48.83
2017-08-15T08:44:06.367Z,49.68
2017-08-15T08:44:47.297Z,49.39
2017-08-15T08:45:28.181Z,51.02
2017-08-15T08:46:09.091Z,50.95
2017-08-15T08:46:49.996Z,50.12
2017-08-15T08:47:30.923Z,48.46
2017-08-15T08:48:11.846Z,48.88
2017-08-15T08:48:52.769Z,48.17
2017-08-15T08:49:33.647Z,48.66
2017-08-15T08:50:14.551Z,48.63
2017-08-15T08:50:55.482Z,49.22
2017-08-15T08:51:36.435Z,49.68
2017-08-15T08:52:17.352Z,49.95